Terminal Aerodrome Forecast
Issued by NWS Cleveland, OH

Home | Current Version | Previous Version | Text Only | Print | Product List | Glossary Off
Versions: 1 2 3 4 5 6 7 8 9 10 11 12 13 14 15 16 17 18 19 20 21 22

326
FTUS41 KCLE 232330
TAFERI
TAF
KERI 232330Z 2400/2424 06010KT P6SM SCT040 OVC200
     FM240600 17008KT P6SM VCSH SCT025 OVC040
     FM241000 16012G18KT 5SM -SHRA OVC025=

USA.gov is the U.S. government's official web portal to all federal, state and local government web resources and services.